sensor_id;sensor_type;location;lat;lon;timestamp;temperature;humidity
32536;DHT22;18974;50.838;4.636;2024-03-25T00:01:15;4.60;99.90
32536;DHT22;18974;50.838;4.636;2024-03-25T00:03:41;4.60;99.90
32536;DHT22;18974;50.838;4.636;2024-03-25T00:06:07;4.60;99.90
32536;DHT22;18974;50.838;4.636;2024-03-25T00:08:33;4.70;99.90
32536;DHT22;18974;50.838;4.636;2024-03-25T00:10:58;4.70;99.90
32536;DHT22;18974;50.838;4.636;2024-03-25T00:13:24;4.70;99.90
32536;DHT22;18974;50.838;4.636;2024-03-25T00:15:50;4.70;99.90
32536;DHT22;18974;50.838;4.636;2024-03-25T00:18:16;4.60;99.90
32536;DHT22;18974;50.838;4.636;2024-03-25T00:20:41;4.60;99.90
32536;DHT22;18974;50.838;4.636;2024-03-25T00:23:07;4.60;99.90
32536;DHT22;18974;50.838;4.636;2024-03-25T00:25:33;4.60;99.90
32536;DHT22;18974;50.838;4.636;2024-03-25T00:27:58;4.60;99.90
32536;DHT22;18974;50.838;4.636;2024-03-25T00:30:24;4.60;99.90
32536;DHT22;18974;50.838;4.636;2024-03-25T00:32:50;4.60;99.90
32536;DHT22;18974;50.838;4.636;2024-03-25T00:35:16;4.60;99.90
32536;DHT22;18974;50.838;4.636;2024-03-25T00:37:41;4.50;99.90
32536;DHT22;18974;50.838;4.636;2024-03-25T00:40:08;4.50;99.90
32536;DHT22;18974;50.838;4.636;2024-03-25T00:42:33;4.40;99.90
32536;DHT22;18974;50.838;4.636;2024-03-25T00:44:59;4.40;99.90
32536;DHT22;18974;50.838;4.636;2024-03-25T00:47:25;4.40;99.90
32536;DHT22;18974;50.838;4.636;2024-03-25T00:49:51;4.60;99.90
32536;DHT22;18974;50.838;4.636;2024-03-25T00:52:17;4.50;99.90
32536;DHT22;18974;50.838;4.636;2024-03-25T00:54:43;4.50;99.90
32536;DHT22;18974;50.838;4.636;2024-03-25T00:57:08;4.30;99.90
32536;DHT22;18974;50.838;4.636;2024-03-25T00:59:34;4.30;99.90
32536;DHT22;18974;50.838;4.636;2024-03-25T01:02:00;4.20;99.90
32536;DHT22;18974;50.838;4.636;2024-03-25T01:04:26;4.30;99.90
32536;DHT22;18974;50.838;4.636;2024-03-25T01:06:51;4.30;99.90
32536;DHT22;18974;50.838;4.636;2024-03-25T01:09:17;4.30;99.90
32536;DHT22;18974;50.838;4.636;2024-03-25T01:11:43;4.30;99.90
32536;DHT22;18974;50.838;4.636;2024-03-25T01:14:09;4.20;99.90
32536;DHT22;18974;50.838;4.636;2024-03-25T01:16:34;4.20;99.90
32536;DHT22;18974;50.838;4.636;2024-03-25T01:19:00;4.30;99.90
32536;DHT22;18974;50.838;4.636;2024-03-25T01:21:26;4.30;99.90
32536;DHT22;18974;50.838;4.636;2024-03-25T01:23:51;4.20;99.90
32536;DHT22;18974;50.838;4.636;2024-03-25T01:26:17;4.10;99.90
32536;DHT22;18974;50.838;4.636;2024-03-25T01:28:43;4.10;99.90
32536;DHT22;18974;50.838;4.636;2024-03-25T01:31:08;4.00;99.90
32536;DHT22;18974;50.838;4.636;2024-03-25T01:33:34;4.10;99.90
32536;DHT22;18974;50.838;4.636;2024-03-25T01:36:00;4.20;99.90
32536;DHT22;18974;50.838;4.636;2024-03-25T01:38:26;4.20;99.90
32536;DHT22;18974;50.838;4.636;2024-03-25T01:40:52;4.20;99.90
32536;DHT22;18974;50.838;4.636;2024-03-25T01:43:17;4.20;99.90
32536;DHT22;18974;50.838;4.636;2024-03-25T01:45:43;4.30;99.90
32536;DHT22;18974;50.838;4.636;2024-03-25T01:48:10;4.30;99.90
32536;DHT22;18974;50.838;4.636;2024-03-25T01:50:42;4.20;99.90
32536;DHT22;18974;50.838;4.636;2024-03-25T01:53:09;4.10;99.90
32536;DHT22;18974;50.838;4.636;2024-03-25T01:55:35;4.00;99.90
32536;DHT22;18974;50.838;4.636;2024-03-25T01:58:02;4.10;99.90
32536;DHT22;18974;50.838;4.636;2024-03-25T02:00:29;4.00;99.90
32536;DHT22;18974;50.838;4.636;2024-03-25T02:02:55;4.00;99.90
32536;DHT22;18974;50.838;4.636;2024-03-25T02:05:22;4.00;99.90
32536;DHT22;18974;50.838;4.636;2024-03-25T02:07:48;4.00;99.90
32536;DHT22;18974;50.838;4.636;2024-03-25T02:10:15;3.90;99.90
32536;DHT22;18974;50.838;4.636;2024-03-25T02:12:45;4.00;99.90
32536;DHT22;18974;50.838;4.636;2024-03-25T02:15:12;4.00;99.90
32536;DHT22;18974;50.838;4.636;2024-03-25T02:17:41;3.90;99.90
32536;DHT22;18974;50.838;4.636;2024-03-25T02:20:07;4.00;99.90
32536;DHT22;18974;50.838;4.636;2024-03-25T02:22:37;3.90;99.90
32536;DHT22;18974;50.838;4.636;2024-03-25T02:25:07;3.80;99.90
32536;DHT22;18974;50.838;4.636;2024-03-25T02:27:37;3.80;99.90
32536;DHT22;18974;50.838;4.636;2024-03-25T02:30:07;3.80;99.90
32536;DHT22;18974;50.838;4.636;2024-03-25T02:32:34;3.80;99.90
32536;DHT22;18974;50.838;4.636;2024-03-25T02:35:01;3.80;99.90
32536;DHT22;18974;50.838;4.636;2024-03-25T02:37:27;3.80;99.90
32536;DHT22;18974;50.838;4.636;2024-03-25T02:39:57;3.90;99.90
32536;DHT22;18974;50.838;4.636;2024-03-25T02:42:24;3.90;99.90
32536;DHT22;18974;50.838;4.636;2024-03-25T02:44:50;3.90;99.90
32536;DHT22;18974;50.838;4.636;2024-03-25T02:47:16;3.80;99.90
32536;DHT22;18974;50.838;4.636;2024-03-25T02:49:43;3.80;99.90
32536;DHT22;18974;50.838;4.636;2024-03-25T02:52:08;3.80;99.90
32536;DHT22;18974;50.838;4.636;2024-03-25T02:54:34;3.90;99.90
32536;DHT22;18974;50.838;4.636;2024-03-25T02:57:00;3.90;99.90
32536;DHT22;18974;50.838;4.636;2024-03-25T02:59:25;3.80;99.90
32536;DHT22;18974;50.838;4.636;2024-03-25T03:01:51;3.70;99.90
32536;DHT22;18974;50.838;4.636;2024-03-25T03:04:17;3.70;99.90
32536;DHT22;18974;50.838;4.636;2024-03-25T03:06:42;3.70;99.90
32536;DHT22;18974;50.838;4.636;2024-03-25T03:09:08;3.80;99.90
32536;DHT22;18974;50.838;4.636;2024-03-25T03:11:33;3.70;99.90
32536;DHT22;18974;50.838;4.636;2024-03-25T03:13:59;3.60;99.90
32536;DHT22;18974;50.838;4.636;2024-03-25T03:16:25;3.60;99.90
32536;DHT22;18974;50.838;4.636;2024-03-25T03:18:51;3.60;99.90
32536;DHT22;18974;50.838;4.636;2024-03-25T03:21:16;3.60;99.90
32536;DHT22;18974;50.838;4.636;2024-03-25T03:23:42;3.50;99.90
32536;DHT22;18974;50.838;4.636;2024-03-25T03:26:08;3.50;99.90
32536;DHT22;18974;50.838;4.636;2024-03-25T03:28:33;3.50;99.90
32536;DHT22;18974;50.838;4.636;2024-03-25T03:30:59;3.50;99.90
32536;DHT22;18974;50.838;4.636;2024-03-25T03:33:25;3.40;99.90
32536;DHT22;18974;50.838;4.636;2024-03-25T03:35:52;3.40;99.90
32536;DHT22;18974;50.838;4.636;2024-03-25T03:38:17;3.40;99.90
32536;DHT22;18974;50.838;4.636;2024-03-25T03:40:55;3.30;99.90
32536;DHT22;18974;50.838;4.636;2024-03-25T03:43:21;3.50;99.90
32536;DHT22;18974;50.838;4.636;2024-03-25T03:45:46;3.60;99.90
32536;DHT22;18974;50.838;4.636;2024-03-25T03:48:12;3.60;99.90
32536;DHT22;18974;50.838;4.636;2024-03-25T03:50:38;3.60;99.90
32536;DHT22;18974;50.838;4.636;2024-03-25T03:53:03;3.50;99.90
32536;DHT22;18974;50.838;4.636;2024-03-25T03:55:29;3.50;99.90
32536;DHT22;18974;50.838;4.636;2024-03-25T03:57:55;3.50;99.90
32536;DHT22;18974;50.838;4.636;2024-03-25T04:00:21;3.50;99.90
32536;DHT22;18974;50.838;4.636;2024-03-25T04:02:46;3.50;99.90
32536;DHT22;18974;50.838;4.636;2024-03-25T04:05:12;3.40;99.90
32536;DHT22;18974;50.838;4.636;2024-03-25T04:07:38;3.40;99.90
32536;DHT22;18974;50.838;4.636;2024-03-25T04:10:04;3.30;99.90
32536;DHT22;18974;50.838;4.636;2024-03-25T04:12:30;3.30;99.90
32536;DHT22;18974;50.838;4.636;2024-03-25T04:14:56;3.30;99.90
32536;DHT22;18974;50.838;4.636;2024-03-25T04:17:22;3.20;99.90
32536;DHT22;18974;50.838;4.636;2024-03-25T04:19:50;3.10;99.90
32536;DHT22;18974;50.838;4.636;2024-03-25T04:22:15;3.10;99.90
32536;DHT22;18974;50.838;4.636;2024-03-25T04:24:43;3.10;99.90
32536;DHT22;18974;50.838;4.636;2024-03-25T04:27:09;3.10;99.90
32536;DHT22;18974;50.838;4.636;2024-03-25T04:29:34;3.10;99.90
32536;DHT22;18974;50.838;4.636;2024-03-25T04:32:00;3.20;99.90
32536;DHT22;18974;50.838;4.636;2024-03-25T04:34:26;3.30;99.90
32536;DHT22;18974;50.838;4.636;2024-03-25T04:36:51;3.20;99.90
32536;DHT22;18974;50.838;4.636;2024-03-25T04:39:19;3.20;99.90
32536;DHT22;18974;50.838;4.636;2024-03-25T04:41:44;3.20;99.90
32536;DHT22;18974;50.838;4.636;2024-03-25T04:44:11;3.20;99.90
32536;DHT22;18974;50.838;4.636;2024-03-25T04:46:37;3.10;99.90
32536;DHT22;18974;50.838;4.636;2024-03-25T04:49:02;3.20;99.90
32536;DHT22;18974;50.838;4.636;2024-03-25T04:51:28;3.00;99.90
32536;DHT22;18974;50.838;4.636;2024-03-25T04:53:54;3.00;99.90
32536;DHT22;18974;50.838;4.636;2024-03-25T04:56:19;3.10;99.90
32536;DHT22;18974;50.838;4.636;2024-03-25T04:58:45;3.10;99.90
32536;DHT22;18974;50.838;4.636;2024-03-25T05:01:11;3.20;99.90
32536;DHT22;18974;50.838;4.636;2024-03-25T05:03:36;3.20;99.90
32536;DHT22;18974;50.838;4.636;2024-03-25T05:06:02;3.20;99.90
32536;DHT22;18974;50.838;4.636;2024-03-25T05:08:30;3.10;99.90
32536;DHT22;18974;50.838;4.636;2024-03-25T05:10:56;3.10;99.90
32536;DHT22;18974;50.838;4.636;2024-03-25T05:13:22;3.20;99.90
32536;DHT22;18974;50.838;4.636;2024-03-25T05:15:51;3.20;99.90
32536;DHT22;18974;50.838;4.636;2024-03-25T05:18:18;3.20;99.90
32536;DHT22;18974;50.838;4.636;2024-03-25T05:20:44;3.10;99.90
32536;DHT22;18974;50.838;4.636;2024-03-25T05:23:09;3.10;99.90
32536;DHT22;18974;50.838;4.636;2024-03-25T05:25:36;3.10;99.90
32536;DHT22;18974;50.838;4.636;2024-03-25T05:28:01;3.00;99.90
32536;DHT22;18974;50.838;4.636;2024-03-25T05:30:27;3.10;99.90
32536;DHT22;18974;50.838;4.636;2024-03-25T05:32:53;3.20;99.90
32536;DHT22;18974;50.838;4.636;2024-03-25T05:35:19;3.20;99.90
32536;DHT22;18974;50.838;4.636;2024-03-25T05:37:46;3.20;99.90
32536;DHT22;18974;50.838;4.636;2024-03-25T05:40:12;3.10;99.90
32536;DHT22;18974;50.838;4.636;2024-03-25T05:42:38;2.90;99.90
32536;DHT22;18974;50.838;4.636;2024-03-25T05:45:04;3.00;99.90
32536;DHT22;18974;50.838;4.636;2024-03-25T05:47:30;3.10;99.90
32536;DHT22;18974;50.838;4.636;2024-03-25T05:49:55;3.30;99.90
32536;DHT22;18974;50.838;4.636;2024-03-25T05:52:21;3.30;99.90
32536;DHT22;18974;50.838;4.636;2024-03-25T05:54:47;3.20;99.90
32536;DHT22;18974;50.838;4.636;2024-03-25T05:57:13;3.40;99.90
32536;DHT22;18974;50.838;4.636;2024-03-25T05:59:39;3.30;99.90
32536;DHT22;18974;50.838;4.636;2024-03-25T06:02:04;3.50;99.90
32536;DHT22;18974;50.838;4.636;2024-03-25T06:04:30;3.60;99.90
32536;DHT22;18974;50.838;4.636;2024-03-25T06:06:56;3.60;99.90
32536;DHT22;18974;50.838;4.636;2024-03-25T06:09:22;3.70;99.90
32536;DHT22;18974;50.838;4.636;2024-03-25T06:11:47;3.80;99.90
32536;DHT22;18974;50.838;4.636;2024-03-25T06:14:13;3.90;99.90
32536;DHT22;18974;50.838;4.636;2024-03-25T06:16:38;3.90;99.90
32536;DHT22;18974;50.838;4.636;2024-03-25T06:19:04;4.00;99.90
32536;DHT22;18974;50.838;4.636;2024-03-25T06:21:30;4.10;99.90
32536;DHT22;18974;50.838;4.636;2024-03-25T06:23:56;4.10;99.90
32536;DHT22;18974;50.838;4.636;2024-03-25T06:26:21;4.10;99.90
32536;DHT22;18974;50.838;4.636;2024-03-25T06:28:47;4.20;99.90
32536;DHT22;18974;50.838;4.636;2024-03-25T06:31:13;4.30;99.90
32536;DHT22;18974;50.838;4.636;2024-03-25T06:33:57;4.40;99.90
32536;DHT22;18974;50.838;4.636;2024-03-25T06:36:46;4.50;99.90
32536;DHT22;18974;50.838;4.636;2024-03-25T06:39:16;4.70;99.90
32536;DHT22;18974;50.838;4.636;2024-03-25T06:41:42;4.70;99.90
32536;DHT22;18974;50.838;4.636;2024-03-25T06:44:08;4.80;99.90
32536;DHT22;18974;50.838;4.636;2024-03-25T06:46:33;4.80;99.90
32536;DHT22;18974;50.838;4.636;2024-03-25T06:48:59;4.90;99.90
32536;DHT22;18974;50.838;4.636;2024-03-25T06:51:26;4.90;99.90
32536;DHT22;18974;50.838;4.636;2024-03-25T06:53:52;5.00;99.90
32536;DHT22;18974;50.838;4.636;2024-03-25T06:56:18;4.90;99.90
32536;DHT22;18974;50.838;4.636;2024-03-25T06:58:43;5.00;99.90
32536;DHT22;18974;50.838;4.636;2024-03-25T07:01:10;5.00;99.90
32536;DHT22;18974;50.838;4.636;2024-03-25T07:03:39;5.10;99.90
32536;DHT22;18974;50.838;4.636;2024-03-25T07:06:05;5.20;99.90
32536;DHT22;18974;50.838;4.636;2024-03-25T07:08:31;5.30;99.90
32536;DHT22;18974;50.838;4.636;2024-03-25T07:10:57;5.30;99.90
32536;DHT22;18974;50.838;4.636;2024-03-25T07:13:23;5.40;99.90
32536;DHT22;18974;50.838;4.636;2024-03-25T07:15:49;5.40;99.90
32536;DHT22;18974;50.838;4.636;2024-03-25T07:18:15;5.50;99.90
32536;DHT22;18974;50.838;4.636;2024-03-25T07:20:42;5.50;99.90
32536;DHT22;18974;50.838;4.636;2024-03-25T07:23:08;5.70;99.90
32536;DHT22;18974;50.838;4.636;2024-03-25T07:25:34;5.80;99.90
32536;DHT22;18974;50.838;4.636;2024-03-25T07:28:00;5.90;99.90
32536;DHT22;18974;50.838;4.636;2024-03-25T07:30:26;6.00;99.90
32536;DHT22;18974;50.838;4.636;2024-03-25T07:32:58;6.10;99.90
32536;DHT22;18974;50.838;4.636;2024-03-25T07:35:24;6.20;99.90
32536;DHT22;18974;50.838;4.636;2024-03-25T07:37:51;6.30;99.90
32536;DHT22;18974;50.838;4.636;2024-03-25T07:40:18;6.30;99.90
32536;DHT22;18974;50.838;4.636;2024-03-25T07:42:44;6.50;99.90
32536;DHT22;18974;50.838;4.636;2024-03-25T07:45:10;6.60;99.90
32536;DHT22;18974;50.838;4.636;2024-03-25T07:47:36;6.70;99.90
32536;DHT22;18974;50.838;4.636;2024-03-25T07:50:02;6.80;99.90
32536;DHT22;18974;50.838;4.636;2024-03-25T07:52:28;7.00;99.90
32536;DHT22;18974;50.838;4.636;2024-03-25T07:54:54;7.10;99.90
32536;DHT22;18974;50.838;4.636;2024-03-25T07:57:21;7.10;99.90
32536;DHT22;18974;50.838;4.636;2024-03-25T07:59:47;7.20;99.90
32536;DHT22;18974;50.838;4.636;2024-03-25T08:02:12;7.30;99.90
32536;DHT22;18974;50.838;4.636;2024-03-25T08:04:38;7.50;99.90
32536;DHT22;18974;50.838;4.636;2024-03-25T08:07:04;7.50;99.90
32536;DHT22;18974;50.838;4.636;2024-03-25T08:09:30;7.60;99.90
32536;DHT22;18974;50.838;4.636;2024-03-25T08:11:55;7.70;99.90
32536;DHT22;18974;50.838;4.636;2024-03-25T08:14:21;7.80;99.90
32536;DHT22;18974;50.838;4.636;2024-03-25T08:16:47;7.80;99.90
32536;DHT22;18974;50.838;4.636;2024-03-25T08:19:13;8.00;99.90
32536;DHT22;18974;50.838;4.636;2024-03-25T08:21:39;8.20;99.90
32536;DHT22;18974;50.838;4.636;2024-03-25T08:24:04;8.20;99.90
32536;DHT22;18974;50.838;4.636;2024-03-25T08:26:31;8.40;99.90
32536;DHT22;18974;50.838;4.636;2024-03-25T08:28:57;8.50;99.90
32536;DHT22;18974;50.838;4.636;2024-03-25T08:31:22;8.60;99.90
32536;DHT22;18974;50.838;4.636;2024-03-25T08:33:48;8.80;99.90
32536;DHT22;18974;50.838;4.636;2024-03-25T08:36:14;8.90;99.90
32536;DHT22;18974;50.838;4.636;2024-03-25T08:38:39;9.00;99.90
32536;DHT22;18974;50.838;4.636;2024-03-25T08:41:05;9.10;99.90
32536;DHT22;18974;50.838;4.636;2024-03-25T08:43:30;9.10;99.90
32536;DHT22;18974;50.838;4.636;2024-03-25T08:45:56;9.20;99.90
32536;DHT22;18974;50.838;4.636;2024-03-25T08:48:22;9.30;99.90
32536;DHT22;18974;50.838;4.636;2024-03-25T08:50:48;9.40;99.90
32536;DHT22;18974;50.838;4.636;2024-03-25T08:53:14;9.30;99.90
32536;DHT22;18974;50.838;4.636;2024-03-25T08:55:45;9.40;99.90
32536;DHT22;18974;50.838;4.636;2024-03-25T08:58:12;9.60;99.90
32536;DHT22;18974;50.838;4.636;2024-03-25T09:00:38;9.80;99.90
32536;DHT22;18974;50.838;4.636;2024-03-25T09:03:04;9.90;99.90
32536;DHT22;18974;50.838;4.636;2024-03-25T09:05:30;10.10;99.90
32536;DHT22;18974;50.838;4.636;2024-03-25T09:07:56;10.30;99.90
32536;DHT22;18974;50.838;4.636;2024-03-25T09:10:24;10.50;99.90
32536;DHT22;18974;50.838;4.636;2024-03-25T09:13:08;10.50;99.90
32536;DHT22;18974;50.838;4.636;2024-03-25T09:15:34;10.70;99.90
32536;DHT22;18974;50.838;4.636;2024-03-25T09:18:00;10.80;99.90
32536;DHT22;18974;50.838;4.636;2024-03-25T09:20:26;10.90;99.90
32536;DHT22;18974;50.838;4.636;2024-03-25T09:22:52;11.10;99.90
32536;DHT22;18974;50.838;4.636;2024-03-25T09:25:18;11.30;99.90
32536;DHT22;18974;50.838;4.636;2024-03-25T09:27:47;11.30;99.90
32536;DHT22;18974;50.838;4.636;2024-03-25T09:30:14;11.40;99.90
32536;DHT22;18974;50.838;4.636;2024-03-25T09:32:40;11.40;99.90
32536;DHT22;18974;50.838;4.636;2024-03-25T09:35:07;11.50;99.90
32536;DHT22;18974;50.838;4.636;2024-03-25T09:37:33;11.50;99.90
32536;DHT22;18974;50.838;4.636;2024-03-25T09:39:59;11.50;99.90
32536;DHT22;18974;50.838;4.636;2024-03-25T09:42:33;11.70;99.90
32536;DHT22;18974;50.838;4.636;2024-03-25T09:44:59;11.80;99.90
32536;DHT22;18974;50.838;4.636;2024-03-25T09:47:25;11.80;99.90
32536;DHT22;18974;50.838;4.636;2024-03-25T09:49:52;11.80;99.90
32536;DHT22;18974;50.838;4.636;2024-03-25T09:52:19;11.90;99.90
32536;DHT22;18974;50.838;4.636;2024-03-25T09:54:45;12.00;99.90
32536;DHT22;18974;50.838;4.636;2024-03-25T09:57:11;12.00;99.90
32536;DHT22;18974;50.838;4.636;2024-03-25T09:59:37;12.10;99.90
32536;DHT22;18974;50.838;4.636;2024-03-25T10:02:03;12.20;99.90
32536;DHT22;18974;50.838;4.636;2024-03-25T10:04:30;12.30;99.90
32536;DHT22;18974;50.838;4.636;2024-03-25T10:06:56;12.30;99.90
32536;DHT22;18974;50.838;4.636;2024-03-25T10:09:22;12.50;99.90
32536;DHT22;18974;50.838;4.636;2024-03-25T10:11:49;12.70;99.90
32536;DHT22;18974;50.838;4.636;2024-03-25T10:14:18;12.90;99.90
32536;DHT22;18974;50.838;4.636;2024-03-25T10:16:48;12.90;99.90
32536;DHT22;18974;50.838;4.636;2024-03-25T10:19:16;13.10;99.90
32536;DHT22;18974;50.838;4.636;2024-03-25T10:21:42;13.30;99.90
32536;DHT22;18974;50.838;4.636;2024-03-25T10:24:08;13.30;99.90
32536;DHT22;18974;50.838;4.636;2024-03-25T10:26:34;13.20;99.90
32536;DHT22;18974;50.838;4.636;2024-03-25T10:29:07;13.20;99.90
32536;DHT22;18974;50.838;4.636;2024-03-25T10:31:34;13.20;99.90
32536;DHT22;18974;50.838;4.636;2024-03-25T10:34:00;13.40;99.90
32536;DHT22;18974;50.838;4.636;2024-03-25T10:36:26;13.50;99.90
32536;DHT22;18974;50.838;4.636;2024-03-25T10:38:56;13.50;99.90
32536;DHT22;18974;50.838;4.636;2024-03-25T10:41:23;13.50;99.90
32536;DHT22;18974;50.838;4.636;2024-03-25T10:43:52;13.70;99.90
32536;DHT22;18974;50.838;4.636;2024-03-25T10:46:20;13.90;99.90
32536;DHT22;18974;50.838;4.636;2024-03-25T10:48:58;13.80;99.90
32536;DHT22;18974;50.838;4.636;2024-03-25T10:51:26;13.70;99.90
32536;DHT22;18974;50.838;4.636;2024-03-25T10:53:52;13.90;99.90
32536;DHT22;18974;50.838;4.636;2024-03-25T10:56:22;14.00;99.90
32536;DHT22;18974;50.838;4.636;2024-03-25T10:58:49;14.30;99.90
32536;DHT22;18974;50.838;4.636;2024-03-25T11:01:18;14.50;99.90
32536;DHT22;18974;50.838;4.636;2024-03-25T11:03:48;14.50;99.90
32536;DHT22;18974;50.838;4.636;2024-03-25T11:06:14;14.50;99.90
32536;DHT22;18974;50.838;4.636;2024-03-25T11:08:40;14.30;99.90
32536;DHT22;18974;50.838;4.636;2024-03-25T11:11:07;14.10;99.90
32536;DHT22;18974;50.838;4.636;2024-03-25T11:13:33;14.10;99.90
32536;DHT22;18974;50.838;4.636;2024-03-25T11:15:59;14.20;99.90
32536;DHT22;18974;50.838;4.636;2024-03-25T11:18:26;14.20;99.90
32536;DHT22;18974;50.838;4.636;2024-03-25T11:21:25;14.20;99.90
32536;DHT22;18974;50.838;4.636;2024-03-25T11:23:51;14.10;99.90
32536;DHT22;18974;50.838;4.636;2024-03-25T11:26:22;14.10;99.90
32536;DHT22;18974;50.838;4.636;2024-03-25T11:28:53;14.50;99.90
32536;DHT22;18974;50.838;4.636;2024-03-25T11:31:20;14.60;99.90
32536;DHT22;18974;50.838;4.636;2024-03-25T11:33:47;14.50;99.90
32536;DHT22;18974;50.838;4.636;2024-03-25T11:36:13;14.40;99.90
32536;DHT22;18974;50.838;4.636;2024-03-25T11:38:40;14.60;99.90
32536;DHT22;18974;50.838;4.636;2024-03-25T11:41:07;15.20;99.90
32536;DHT22;18974;50.838;4.636;2024-03-25T11:43:42;15.70;99.90
32536;DHT22;18974;50.838;4.636;2024-03-25T11:46:07;15.90;99.90
32536;DHT22;18974;50.838;4.636;2024-03-25T11:48:33;16.00;99.90
32536;DHT22;18974;50.838;4.636;2024-03-25T11:50:59;15.60;99.90
32536;DHT22;18974;50.838;4.636;2024-03-25T11:53:26;15.10;99.90
32536;DHT22;18974;50.838;4.636;2024-03-25T11:55:53;15.00;99.90
32536;DHT22;18974;50.838;4.636;2024-03-25T11:58:18;14.80;99.90
32536;DHT22;18974;50.838;4.636;2024-03-25T12:00:48;14.80;99.90
32536;DHT22;18974;50.838;4.636;2024-03-25T12:03:17;14.90;99.90
32536;DHT22;18974;50.838;4.636;2024-03-25T12:05:45;15.00;99.90
32536;DHT22;18974;50.838;4.636;2024-03-25T12:08:12;15.40;99.90
32536;DHT22;18974;50.838;4.636;2024-03-25T12:10:39;15.70;99.90
32536;DHT22;18974;50.838;4.636;2024-03-25T12:13:24;15.90;99.90
32536;DHT22;18974;50.838;4.636;2024-03-25T12:15:51;15.80;98.80
32536;DHT22;18974;50.838;4.636;2024-03-25T12:18:17;15.60;99.90
32536;DHT22;18974;50.838;4.636;2024-03-25T12:20:45;15.60;99.20
32536;DHT22;18974;50.838;4.636;2024-03-25T12:23:11;15.90;98.10
32536;DHT22;18974;50.838;4.636;2024-03-25T12:25:37;16.10;98.70
32536;DHT22;18974;50.838;4.636;2024-03-25T12:28:08;16.20;99.90
32536;DHT22;18974;50.838;4.636;2024-03-25T12:30:48;16.10;99.50
32536;DHT22;18974;50.838;4.636;2024-03-25T12:33:15;16.10;99.90
32536;DHT22;18974;50.838;4.636;2024-03-25T12:35:41;15.70;99.10
32536;DHT22;18974;50.838;4.636;2024-03-25T12:38:07;15.30;99.90
32536;DHT22;18974;50.838;4.636;2024-03-25T12:40:33;15.30;99.90
32536;DHT22;18974;50.838;4.636;2024-03-25T12:42:58;15.40;99.90
32536;DHT22;18974;50.838;4.636;2024-03-25T12:45:24;15.30;99.90
32536;DHT22;18974;50.838;4.636;2024-03-25T12:47:50;15.20;99.90
32536;DHT22;18974;50.838;4.636;2024-03-25T12:50:16;15.20;99.90
32536;DHT22;18974;50.838;4.636;2024-03-25T12:52:42;15.40;99.90
32536;DHT22;18974;50.838;4.636;2024-03-25T12:55:07;15.70;99.20
32536;DHT22;18974;50.838;4.636;2024-03-25T12:57:33;16.20;99.90
32536;DHT22;18974;50.838;4.636;2024-03-25T13:00:00;16.70;99.90
32536;DHT22;18974;50.838;4.636;2024-03-25T13:02:26;17.30;99.90
32536;DHT22;18974;50.838;4.636;2024-03-25T13:04:52;17.80;99.20
32536;DHT22;18974;50.838;4.636;2024-03-25T13:07:18;17.60;95.70
32536;DHT22;18974;50.838;4.636;2024-03-25T13:09:43;17.70;98.90
32536;DHT22;18974;50.838;4.636;2024-03-25T13:12:09;17.90;98.30
32536;DHT22;18974;50.838;4.636;2024-03-25T13:14:35;17.70;95.90
32536;DHT22;18974;50.838;4.636;2024-03-25T13:17:00;17.20;96.40
32536;DHT22;18974;50.838;4.636;2024-03-25T13:19:26;16.80;96.80
32536;DHT22;18974;50.838;4.636;2024-03-25T13:21:55;16.60;97.10
32536;DHT22;18974;50.838;4.636;2024-03-25T13:24:20;16.50;98.60
32536;DHT22;18974;50.838;4.636;2024-03-25T13:26:46;16.30;97.30
32536;DHT22;18974;50.838;4.636;2024-03-25T13:29:12;16.10;97.00
32536;DHT22;18974;50.838;4.636;2024-03-25T13:31:37;16.10;99.30
32536;DHT22;18974;50.838;4.636;2024-03-25T13:34:03;16.30;98.60
32536;DHT22;18974;50.838;4.636;2024-03-25T13:36:30;16.60;98.50
32536;DHT22;18974;50.838;4.636;2024-03-25T13:38:56;17.00;99.10
32536;DHT22;18974;50.838;4.636;2024-03-25T13:41:22;17.30;99.50
32536;DHT22;18974;50.838;4.636;2024-03-25T13:43:49;17.70;99.90
32536;DHT22;18974;50.838;4.636;2024-03-25T13:46:15;17.90;98.80
32536;DHT22;18974;50.838;4.636;2024-03-25T13:48:41;18.00;98.10
32536;DHT22;18974;50.838;4.636;2024-03-25T13:51:06;18.30;97.80
32536;DHT22;18974;50.838;4.636;2024-03-25T13:53:32;18.70;98.40
32536;DHT22;18974;50.838;4.636;2024-03-25T13:55:58;18.60;96.70
32536;DHT22;18974;50.838;4.636;2024-03-25T13:58:25;18.40;95.60
32536;DHT22;18974;50.838;4.636;2024-03-25T14:00:51;18.10;95.40
32536;DHT22;18974;50.838;4.636;2024-03-25T14:03:17;17.60;95.60
32536;DHT22;18974;50.838;4.636;2024-03-25T14:05:43;17.40;96.40
32536;DHT22;18974;50.838;4.636;2024-03-25T14:08:09;17.40;95.90
32536;DHT22;18974;50.838;4.636;2024-03-25T14:10:35;17.20;96.60
32536;DHT22;18974;50.838;4.636;2024-03-25T14:13:01;17.20;97.90
32536;DHT22;18974;50.838;4.636;2024-03-25T14:15:26;17.20;97.10
32536;DHT22;18974;50.838;4.636;2024-03-25T14:17:52;17.30;97.90
32536;DHT22;18974;50.838;4.636;2024-03-25T14:20:18;17.40;98.40
32536;DHT22;18974;50.838;4.636;2024-03-25T14:22:43;17.40;96.20
32536;DHT22;18974;50.838;4.636;2024-03-25T14:25:09;17.10;95.40
32536;DHT22;18974;50.838;4.636;2024-03-25T14:27:35;17.10;97.80
32536;DHT22;18974;50.838;4.636;2024-03-25T14:30:00;17.00;97.60
32536;DHT22;18974;50.838;4.636;2024-03-25T14:32:26;16.80;96.20
32536;DHT22;18974;50.838;4.636;2024-03-25T14:34:51;16.90;97.60
32536;DHT22;18974;50.838;4.636;2024-03-25T14:37:17;17.10;97.10
32536;DHT22;18974;50.838;4.636;2024-03-25T14:39:43;17.10;97.40
32536;DHT22;18974;50.838;4.636;2024-03-25T14:42:09;17.20;96.70
32536;DHT22;18974;50.838;4.636;2024-03-25T14:44:38;17.30;97.20
32536;DHT22;18974;50.838;4.636;2024-03-25T14:47:04;17.30;96.50
32536;DHT22;18974;50.838;4.636;2024-03-25T14:49:30;17.20;96.40
32536;DHT22;18974;50.838;4.636;2024-03-25T14:51:56;17.10;96.80
32536;DHT22;18974;50.838;4.636;2024-03-25T14:54:21;16.80;95.10
32536;DHT22;18974;50.838;4.636;2024-03-25T14:56:47;16.50;97.40
32536;DHT22;18974;50.838;4.636;2024-03-25T14:59:13;16.50;97.10
32536;DHT22;18974;50.838;4.636;2024-03-25T15:01:39;16.30;97.70
32536;DHT22;18974;50.838;4.636;2024-03-25T15:04:05;16.20;97.80
32536;DHT22;18974;50.838;4.636;2024-03-25T15:06:31;16.10;97.00
32536;DHT22;18974;50.838;4.636;2024-03-25T15:08:58;15.90;98.40
32536;DHT22;18974;50.838;4.636;2024-03-25T15:11:24;15.80;98.30
32536;DHT22;18974;50.838;4.636;2024-03-25T15:13:54;15.80;99.30
32536;DHT22;18974;50.838;4.636;2024-03-25T15:16:20;15.50;98.00
32536;DHT22;18974;50.838;4.636;2024-03-25T15:18:46;15.50;99.50
32536;DHT22;18974;50.838;4.636;2024-03-25T15:21:12;15.40;99.40
32536;DHT22;18974;50.838;4.636;2024-03-25T15:23:38;15.30;99.80
32536;DHT22;18974;50.838;4.636;2024-03-25T15:26:03;15.20;97.80
32536;DHT22;18974;50.838;4.636;2024-03-25T15:28:29;15.10;99.30
32536;DHT22;18974;50.838;4.636;2024-03-25T15:30:55;15.00;98.60
32536;DHT22;18974;50.838;4.636;2024-03-25T15:33:24;15.00;98.50
32536;DHT22;18974;50.838;4.636;2024-03-25T15:35:50;15.00;98.70